createdAt,value
2019-05-15T00:02:18.429Z,1.93
2019-05-15T00:04:49.151Z,2.27
2019-05-15T00:07:18.419Z,2.47
2019-05-15T00:09:49.178Z,2.30
2019-05-15T00:12:19.014Z,2.27
2019-05-15T00:14:48.541Z,1.70
2019-05-15T00:17:19.189Z,2.20
2019-05-15T00:19:48.660Z,2.20
2019-05-15T00:22:18.381Z,2.37
2019-05-15T00:24:48.835Z,2.77
2019-05-15T00:27:20.210Z,2.37
2019-05-15T00:29:48.785Z,2.30
2019-05-15T00:32:18.597Z,2.23
2019-05-15T00:34:48.827Z,2.43
2019-05-15T00:37:18.287Z,2.40
2019-05-15T00:39:48.626Z,2.73
2019-05-15T00:42:19.079Z,2.20
2019-05-15T00:44:49.334Z,2.33
2019-05-15T00:47:18.538Z,2.50
2019-05-15T00:49:48.815Z,2.53
2019-05-15T00:52:18.137Z,2.33
2019-05-15T00:54:48.441Z,2.67
2019-05-15T00:57:19.250Z,2.20
2019-05-15T00:59:48.923Z,2.60
2019-05-15T01:02:19.075Z,2.30
2019-05-15T01:04:48.190Z,2.63
2019-05-15T01:07:18.799Z,2.87
2019-05-15T01:09:48.723Z,2.73
2019-05-15T01:12:18.489Z,2.27
2019-05-15T01:14:48.961Z,2.70
2019-05-15T01:17:18.627Z,2.73
2019-05-15T01:19:48.303Z,2.87
2019-05-15T01:22:19.451Z,2.33
2019-05-15T01:24:48.753Z,2.40
2019-05-15T01:27:18.475Z,2.47
2019-05-15T01:29:50.571Z,2.53
2019-05-15T01:32:21.761Z,2.63
2019-05-15T01:34:50.956Z,2.73
2019-05-15T01:37:20.052Z,2.83
2019-05-15T01:39:49.262Z,2.70
2019-05-15T01:42:18.705Z,2.60
2019-05-15T01:44:48.496Z,2.40
2019-05-15T01:47:19.452Z,2.27
2019-05-15T01:49:49.182Z,2.43
2019-05-15T01:52:18.885Z,2.47
2019-05-15T01:54:48.914Z,2.47
2019-05-15T01:57:18.279Z,2.47
2019-05-15T01:59:57.193Z,2.43
2019-05-15T02:02:18.808Z,2.70
2019-05-15T02:04:48.673Z,2.60
2019-05-15T02:07:18.856Z,2.27
2019-05-15T02:09:49.244Z,2.40
2019-05-15T02:12:19.123Z,2.40
2019-05-15T02:14:48.703Z,2.53
2019-05-15T02:17:18.918Z,2.77
2019-05-15T02:19:48.559Z,2.03
2019-05-15T02:22:18.927Z,2.37
2019-05-15T02:24:51.012Z,2.43
2019-05-15T02:27:20.400Z,2.40
2019-05-15T02:29:49.735Z,2.20
2019-05-15T02:32:19.401Z,2.23
2019-05-15T02:34:50.233Z,2.17
2019-05-15T02:37:19.398Z,2.70
2019-05-15T02:39:49.727Z,2.53
2019-05-15T02:42:19.315Z,2.57
2019-05-15T02:44:50.787Z,2.20
2019-05-15T02:47:22.521Z,2.37
2019-05-15T02:49:51.642Z,2.53
2019-05-15T02:52:20.756Z,2.13
2019-05-15T02:54:50.165Z,2.50
2019-05-15T02:57:19.426Z,2.97
2019-05-15T02:59:49.900Z,2.10
2019-05-15T03:02:19.530Z,2.10
2019-05-15T03:04:48.829Z,2.17
2019-05-15T03:07:19.475Z,1.83
2019-05-15T03:09:53.689Z,2.20
2019-05-15T03:12:22.857Z,2.23
2019-05-15T03:14:52.360Z,2.20
2019-05-15T03:17:21.944Z,2.10
2019-05-15T03:19:51.283Z,1.93
2019-05-15T03:22:20.616Z,2.00
2019-05-15T03:24:50.423Z,2.30
2019-05-15T03:27:19.967Z,2.07
2019-05-15T03:29:49.543Z,2.07
2019-05-15T03:32:32.237Z,2.10
2019-05-15T03:34:56.480Z,2.10
2019-05-15T03:37:32.487Z,1.80
2019-05-15T03:39:59.798Z,2.20
2019-05-15T03:42:29.491Z,2.43
2019-05-15T03:44:59.982Z,2.10
2019-05-15T03:47:30.139Z,2.20
2019-05-15T03:50:00.096Z,1.90
2019-05-15T03:52:30.852Z,2.00
2019-05-15T03:55:00.091Z,2.20
2019-05-15T03:57:30.490Z,2.00
2019-05-15T03:59:59.978Z,2.03
2019-05-15T04:02:29.285Z,1.90
2019-05-15T04:05:01.510Z,1.87
2019-05-15T04:07:29.666Z,2.00
2019-05-15T04:09:58.943Z,1.47
2019-05-15T04:12:29.243Z,1.80
2019-05-15T04:14:59.657Z,2.00
2019-05-15T04:17:30.451Z,1.57
2019-05-15T04:20:02.118Z,1.83
2019-05-15T04:22:31.834Z,1.70
2019-05-15T04:27:39.061Z,1.60
2019-05-15T04:30:10.674Z,1.73
2019-05-15T04:32:40.651Z,1.97
2019-05-15T04:35:10.639Z,1.90
2019-05-15T04:37:40.989Z,1.67
2019-05-15T04:40:13.589Z,1.70
2019-05-15T04:42:44.092Z,1.53
2019-05-15T04:45:14.153Z,1.90
2019-05-15T04:47:43.293Z,1.60
2019-05-15T04:50:12.437Z,1.73
2019-05-15T04:52:43.361Z,1.60
2019-05-15T04:55:12.583Z,1.70
2019-05-15T04:57:42.155Z,1.73
2019-05-15T05:00:13.791Z,1.63
2019-05-15T05:02:42.876Z,1.50
2019-05-15T05:05:14.446Z,1.70
2019-05-15T05:07:45.691Z,1.80
2019-05-15T05:12:51.832Z,1.77
2019-05-15T05:15:21.129Z,1.87
2019-05-15T05:17:50.541Z,1.90
2019-05-15T05:20:21.723Z,1.70
2019-05-15T05:28:18.290Z,1.70
2019-05-15T05:30:48.631Z,1.93
2019-05-15T05:36:07.895Z,1.80
2019-05-15T05:38:38.700Z,1.67
2019-05-15T05:41:09.421Z,1.60
2019-05-15T05:57:13.774Z,1.73
2019-05-15T06:43:08.767Z,1.70
2019-05-15T08:22:24.859Z,2.10
2019-05-15T08:46:33.011Z,2.30
2019-05-15T08:51:40.958Z,1.80
2019-05-15T08:54:11.640Z,1.70
2019-05-15T08:56:42.142Z,2.20
2019-05-15T09:09:57.923Z,2.20
2019-05-15T09:18:06.688Z,2.00
2019-05-15T09:20:25.261Z,2.13
2019-05-15T09:22:54.104Z,2.37
2019-05-15T09:25:23.934Z,2.27
2019-05-15T09:27:52.961Z,2.37
2019-05-15T09:30:21.817Z,2.13
2019-05-15T09:32:50.771Z,1.77
2019-05-15T09:35:21.852Z,2.20
2019-05-15T09:37:50.851Z,2.00
2019-05-15T09:40:20.054Z,2.00
2019-05-15T09:42:49.299Z,1.73
2019-05-15T09:45:18.748Z,1.87
2019-05-15T09:47:48.295Z,2.13
2019-05-15T09:50:19.540Z,1.93
2019-05-15T09:52:50.191Z,1.90
2019-05-15T09:55:19.747Z,2.10
2019-05-15T09:57:49.249Z,2.20
2019-05-15T10:00:29.234Z,2.07
2019-05-15T10:02:58.380Z,2.07
2019-05-15T10:05:29.595Z,1.87
2019-05-15T10:07:58.887Z,2.17
2019-05-15T10:10:28.427Z,2.27
2019-05-15T10:12:59.475Z,3.10
2019-05-15T10:15:28.055Z,2.40
2019-05-15T10:17:59.689Z,3.37
2019-05-15T10:20:29.277Z,2.30
2019-05-15T10:22:59.044Z,2.43
2019-05-15T10:25:28.449Z,2.27
2019-05-15T10:27:57.977Z,2.43
2019-05-15T10:30:28.427Z,2.10
2019-05-15T10:32:57.293Z,2.47
2019-05-15T10:35:39.507Z,2.03
2019-05-15T10:38:08.976Z,2.27
2019-05-15T10:40:39.514Z,2.33
2019-05-15T10:43:09.423Z,2.20
2019-05-15T10:45:58.723Z,2.20
2019-05-15T10:48:29.219Z,2.10
2019-05-15T10:51:07.186Z,1.90
2019-05-15T10:53:44.806Z,2.03
2019-05-15T10:56:18.355Z,2.27
2019-05-15T10:58:50.152Z,2.50
2019-05-15T11:01:19.171Z,2.30
2019-05-15T11:04:09.538Z,2.50
2019-05-15T11:06:38.748Z,1.73
2019-05-15T11:09:08.629Z,1.93
2019-05-15T11:11:37.728Z,2.60
2019-05-15T11:14:09.089Z,2.80
2019-05-15T11:16:43.439Z,2.83
2019-05-15T11:19:13.607Z,2.50
2019-05-15T11:21:43.628Z,2.37
2019-05-15T11:24:12.670Z,2.17
2019-05-15T11:26:41.544Z,2.20
2019-05-15T11:29:10.636Z,2.20
2019-05-15T11:31:39.557Z,2.47
2019-05-15T11:34:09.364Z,2.30
2019-05-15T11:36:38.751Z,2.50
2019-05-15T11:39:08.559Z,2.10
2019-05-15T11:41:38.655Z,2.07
2019-05-15T11:44:07.684Z,1.97
2019-05-15T11:46:39.049Z,1.97
2019-05-15T11:49:09.442Z,2.30
2019-05-15T11:51:38.474Z,2.00
2019-05-15T11:54:08.263Z,2.23
2019-05-15T11:56:41.647Z,2.37
2019-05-15T11:59:11.961Z,2.40
2019-05-15T12:01:40.871Z,2.30
2019-05-15T12:04:09.782Z,2.57
2019-05-15T12:06:38.705Z,2.40
2019-05-15T12:09:09.123Z,2.20
2019-05-15T12:11:41.080Z,2.17
2019-05-15T12:14:08.815Z,2.33
2019-05-15T12:16:39.977Z,3.00
2019-05-15T12:19:09.607Z,2.40
2019-05-15T12:21:39.648Z,2.63
2019-05-15T12:24:09.112Z,2.50
2019-05-15T12:26:39.388Z,2.37
2019-05-15T12:29:10.183Z,2.00
2019-05-15T12:31:40.230Z,2.40
2019-05-15T12:34:09.357Z,2.63
2019-05-15T12:39:13.239Z,2.20
2019-05-15T13:01:47.239Z,1.87
2019-05-15T13:04:16.185Z,2.60
2019-05-15T13:06:49.523Z,2.00
2019-05-15T13:09:19.361Z,2.50
2019-05-15T13:11:51.442Z,2.47
2019-05-15T13:14:20.212Z,2.53
2019-05-15T13:16:50.890Z,2.20
2019-05-15T13:19:20.095Z,2.63
2019-05-15T13:21:51.421Z,2.00
2019-05-15T13:24:20.754Z,2.03
2019-05-15T13:26:49.989Z,2.13
2019-05-15T13:29:18.893Z,2.33
2019-05-15T13:31:48.002Z,2.10
2019-05-15T13:34:19.626Z,2.70
2019-05-15T13:36:48.685Z,1.97
2019-05-15T13:39:28.230Z,1.70
2019-05-15T13:42:11.680Z,2.10
2019-05-15T13:44:40.607Z,2.00
2019-05-15T13:47:09.816Z,1.90
2019-05-15T13:49:38.774Z,2.03
2019-05-15T13:52:10.443Z,1.90
2019-05-15T13:54:40.511Z,2.03
2019-05-15T13:57:13.891Z,1.90
2019-05-15T13:59:48.187Z,1.67
2019-05-15T14:02:18.573Z,1.70
2019-05-15T14:04:49.113Z,2.00
2019-05-15T14:07:19.264Z,1.87
2019-05-15T14:09:48.541Z,1.63
2019-05-15T14:12:29.052Z,1.70
2019-05-15T14:14:58.343Z,2.23
2019-05-15T14:17:28.275Z,1.87
2019-05-15T14:19:58.026Z,1.70
2019-05-15T14:22:27.066Z,1.90
2019-05-15T14:24:58.420Z,2.00
2019-05-15T14:27:28.919Z,1.80
2019-05-15T14:29:58.889Z,2.00
2019-05-15T14:32:37.699Z,1.60
2019-05-15T14:34:58.896Z,1.47
2019-05-15T14:37:28.601Z,1.40
2019-05-15T14:39:58.045Z,1.80
2019-05-15T14:42:29.316Z,1.80
2019-05-15T14:44:59.207Z,1.50
2019-05-15T14:47:29.503Z,1.63
2019-05-15T14:49:58.954Z,1.57
2019-05-15T14:52:28.345Z,1.50
2019-05-15T14:54:59.054Z,1.47
2019-05-15T14:57:28.719Z,1.93
2019-05-15T14:59:58.430Z,1.63
2019-05-15T15:02:27.350Z,1.50
2019-05-15T15:04:59.214Z,1.57
2019-05-15T15:07:28.281Z,1.43
2019-05-15T15:09:58.267Z,1.67
2019-05-15T15:12:28.327Z,1.57
2019-05-15T15:14:57.861Z,1.43
2019-05-15T15:17:28.928Z,1.60
2019-05-15T15:20:00.252Z,1.67
2019-05-15T15:22:28.613Z,1.53
2019-05-15T15:24:59.754Z,1.70
2019-05-15T15:27:28.723Z,8.40
2019-05-15T15:29:58.266Z,12.53
2019-05-15T15:32:28.399Z,2.00
2019-05-15T15:34:58.703Z,2.10
2019-05-15T15:37:28.681Z,1.70
2019-05-15T15:39:58.760Z,1.47
2019-05-15T15:42:28.565Z,1.73
2019-05-15T15:44:58.182Z,1.63
2019-05-15T15:47:28.170Z,1.80
2019-05-15T15:49:59.138Z,1.57
2019-05-15T15:52:29.069Z,1.47
2019-05-15T15:54:58.114Z,1.80
2019-05-15T15:57:29.508Z,1.70
2019-05-15T16:00:00.422Z,2.10
2019-05-15T16:02:31.913Z,1.90
2019-05-15T16:05:01.011Z,1.73
2019-05-15T16:07:30.045Z,1.90
2019-05-15T16:09:59.019Z,1.93
2019-05-15T16:12:28.013Z,1.90
2019-05-15T16:14:57.906Z,2.00
2019-05-15T16:17:28.589Z,1.90
2019-05-15T16:19:57.510Z,1.70
2019-05-15T16:22:45.785Z,1.80
2019-05-15T16:25:14.679Z,2.17
2019-05-15T16:27:43.594Z,1.90
2019-05-15T16:30:15.766Z,1.83
2019-05-15T16:32:44.604Z,1.73
2019-05-15T16:35:13.640Z,1.60
2019-05-15T16:37:42.449Z,1.90
2019-05-15T16:40:11.802Z,1.87
2019-05-15T16:42:40.747Z,1.70
2019-05-15T16:45:10.899Z,2.00
2019-05-15T16:47:39.881Z,1.83
2019-05-15T16:50:09.607Z,1.80
2019-05-15T16:52:39.116Z,1.60
2019-05-15T16:55:09.324Z,1.77
2019-05-15T16:57:39.077Z,1.97
2019-05-15T17:00:09.623Z,1.80
2019-05-15T17:02:39.700Z,1.90
2019-05-15T17:05:09.678Z,1.80
2019-05-15T17:07:39.110Z,1.87
2019-05-15T17:10:14.058Z,1.73
2019-05-15T17:12:42.986Z,1.60
2019-05-15T17:15:14.191Z,1.40
2019-05-15T17:17:43.028Z,1.57
2019-05-15T17:20:12.037Z,1.70
2019-05-15T17:22:42.057Z,1.67
2019-05-15T17:25:23.467Z,1.63
2019-05-15T17:27:58.881Z,1.67
2019-05-15T17:30:29.375Z,1.43
2019-05-15T17:33:01.328Z,1.47
2019-05-15T17:35:30.131Z,1.50
2019-05-15T17:37:59.037Z,1.40
2019-05-15T17:40:28.476Z,1.70
2019-05-15T17:42:58.626Z,1.40
2019-05-15T17:45:28.356Z,1.53
2019-05-15T17:47:58.481Z,2.00
2019-05-15T17:50:47.885Z,1.73
2019-05-15T17:53:10.474Z,1.67
2019-05-15T17:55:47.865Z,1.60
2019-05-15T17:58:16.633Z,1.33
2019-05-15T18:00:48.628Z,1.30
2019-05-15T18:03:19.084Z,1.60
2019-05-15T18:06:01.852Z,1.77
2019-05-15T18:08:31.046Z,1.70
2019-05-15T18:11:01.229Z,1.80
2019-05-15T18:13:33.554Z,1.77
2019-05-15T18:16:13.546Z,1.20
2019-05-15T18:18:40.611Z,1.47
2019-05-15T18:21:09.736Z,1.33
2019-05-15T18:23:39.089Z,1.33
2019-05-15T18:26:09.008Z,1.60
2019-05-15T18:28:38.774Z,1.50
2019-05-15T18:31:09.003Z,1.30
2019-05-15T18:33:42.570Z,1.07
2019-05-15T18:36:09.310Z,1.47
2019-05-15T18:38:38.908Z,1.30
2019-05-15T18:41:09.084Z,1.30
2019-05-15T18:43:38.830Z,1.10
2019-05-15T18:46:18.146Z,1.53
2019-05-15T18:48:48.529Z,1.10
2019-05-15T18:51:17.406Z,1.40
2019-05-15T18:53:48.141Z,1.30
2019-05-15T18:56:18.727Z,1.60
2019-05-15T18:58:48.526Z,1.00
2019-05-15T19:01:18.444Z,1.27
2019-05-15T19:03:51.541Z,1.10
2019-05-15T19:06:20.524Z,1.30
2019-05-15T19:08:53.257Z,1.23
2019-05-15T19:11:28.987Z,1.67
2019-05-15T19:13:58.981Z,1.47
2019-05-15T19:16:31.714Z,1.50
2019-05-15T19:19:02.140Z,1.43
2019-05-15T19:21:32.012Z,1.50
2019-05-15T19:24:00.947Z,1.70
2019-05-15T19:26:36.618Z,1.30
2019-05-15T19:29:08.074Z,1.90
2019-05-15T19:31:39.155Z,1.37
2019-05-15T19:34:11.602Z,1.60
2019-05-15T19:36:42.626Z,1.70
2019-05-15T19:39:12.593Z,1.53
2019-05-15T19:41:47.625Z,1.73
2019-05-15T19:44:17.982Z,1.40
2019-05-15T19:46:48.027Z,1.57
2019-05-15T19:49:17.945Z,1.70
2019-05-15T19:51:50.140Z,1.57
2019-05-15T19:54:19.127Z,1.80
2019-05-15T19:56:49.183Z,1.70
2019-05-15T19:59:22.412Z,1.73
2019-05-15T20:01:48.725Z,1.50
2019-05-15T20:04:18.831Z,1.87
2019-05-15T20:06:48.720Z,1.70
2019-05-15T20:09:18.297Z,1.73
2019-05-15T20:11:51.566Z,1.63
2019-05-15T20:14:24.629Z,1.87
2019-05-15T20:16:55.452Z,2.10
2019-05-15T20:19:24.512Z,1.70
2019-05-15T20:21:53.842Z,2.10
2019-05-15T20:24:22.764Z,1.77
2019-05-15T20:26:51.786Z,1.80
2019-05-15T20:29:22.720Z,1.70
2019-05-15T20:31:51.722Z,1.80
2019-05-15T20:34:20.887Z,1.70
2019-05-15T20:36:52.221Z,1.87
2019-05-15T20:39:21.603Z,2.00
2019-05-15T20:41:50.633Z,1.77
2019-05-15T20:44:19.838Z,1.70
2019-05-15T20:46:50.972Z,2.00
2019-05-15T20:49:20.238Z,1.63
2019-05-15T20:51:50.284Z,1.97
2019-05-15T20:54:21.305Z,2.00
2019-05-15T20:56:50.214Z,2.60
2019-05-15T20:59:23.272Z,2.27
2019-05-15T21:01:53.125Z,2.40
2019-05-15T21:04:24.082Z,1.97
2019-05-15T21:06:53.279Z,2.33
2019-05-15T21:09:22.127Z,2.00
2019-05-15T21:11:51.156Z,1.80
2019-05-15T21:14:20.381Z,2.20
2019-05-15T21:16:50.272Z,2.20
2019-05-15T21:19:19.190Z,2.57
2019-05-15T21:21:48.126Z,2.10
2019-05-15T21:24:18.216Z,2.27
2019-05-15T21:26:48.840Z,2.33
2019-05-15T21:29:18.838Z,2.80
2019-05-15T21:31:48.989Z,2.60
2019-05-15T21:34:32.176Z,2.80
2019-05-15T21:36:51.697Z,2.57
2019-05-15T21:39:19.489Z,2.20
2019-05-15T21:41:48.921Z,2.30
2019-05-15T21:44:19.155Z,3.20
2019-05-15T21:46:50.141Z,3.10
2019-05-15T21:49:21.137Z,2.90
2019-05-15T21:51:51.149Z,2.47
2019-05-15T21:54:20.152Z,2.40
2019-05-15T21:56:50.479Z,2.77
2019-05-15T21:59:19.505Z,2.67
2019-05-15T22:01:48.483Z,3.20
2019-05-15T22:04:17.354Z,2.80
2019-05-15T22:06:48.903Z,3.13
2019-05-15T22:09:18.628Z,3.50
2019-05-15T22:11:49.783Z,3.50
2019-05-15T22:14:18.930Z,3.10
2019-05-15T22:16:47.740Z,3.60
2019-05-15T22:19:18.156Z,3.53
2019-05-15T22:21:49.002Z,3.33
2019-05-15T22:24:18.277Z,3.93
2019-05-15T22:26:48.145Z,3.67
2019-05-15T22:29:20.799Z,3.80
2019-05-15T22:31:49.281Z,4.50
2019-05-15T22:34:18.577Z,4.43
2019-05-15T22:36:48.809Z,4.30
2019-05-15T22:39:18.908Z,4.73
2019-05-15T22:41:47.941Z,5.13
2019-05-15T22:44:19.127Z,4.93
2019-05-15T22:46:48.736Z,4.47
2019-05-15T22:49:18.296Z,4.70
2019-05-15T22:51:48.647Z,4.57
2019-05-15T22:54:23.624Z,4.20
2019-05-15T22:56:52.490Z,4.83
2019-05-15T22:59:21.410Z,4.40
2019-05-15T23:01:50.151Z,5.27
2019-05-15T23:04:18.954Z,4.50
2019-05-15T23:06:48.409Z,4.80
2019-05-15T23:09:17.327Z,4.63
2019-05-15T23:11:48.379Z,5.60
2019-05-15T23:14:18.069Z,5.73
2019-05-15T23:16:48.279Z,6.10
2019-05-15T23:19:18.767Z,5.80
2019-05-15T23:21:48.649Z,5.87
2019-05-15T23:24:18.887Z,6.30
2019-05-15T23:26:47.887Z,6.20
2019-05-15T23:29:16.772Z,5.97
2019-05-15T23:31:45.572Z,6.67
2019-05-15T23:34:14.454Z,5.97
2019-05-15T23:36:43.250Z,5.63
2019-05-15T23:39:12.068Z,6.03
2019-05-15T23:41:40.911Z,6.40
2019-05-15T23:44:09.779Z,6.20
2019-05-15T23:46:38.564Z,6.37
2019-05-15T23:49:08.292Z,6.60
2019-05-15T23:51:38.491Z,6.97
2019-05-15T23:54:08.290Z,5.90
2019-05-15T23:56:38.899Z,6.63
2019-05-15T23:59:08.509Z,6.67
